sensor_id;sensor_type;location;lat;lon;timestamp;temperature;humidity
46037;DHT22;31769;49.304;8.428;2023-09-30T00:01:00;18.20;99.90
46037;DHT22;31769;49.304;8.428;2023-09-30T00:04:02;18.20;99.90
46037;DHT22;31769;49.304;8.428;2023-09-30T00:07:03;18.20;99.90
46037;DHT22;31769;49.304;8.428;2023-09-30T00:10:05;18.10;99.90
46037;DHT22;31769;49.304;8.428;2023-09-30T00:13:06;18.00;99.90
46037;DHT22;31769;49.304;8.428;2023-09-30T00:16:07;18.00;99.90
46037;DHT22;31769;49.304;8.428;2023-09-30T00:19:08;18.00;99.90
46037;DHT22;31769;49.304;8.428;2023-09-30T00:22:08;17.90;99.90
46037;DHT22;31769;49.304;8.428;2023-09-30T00:25:09;17.90;99.90
46037;DHT22;31769;49.304;8.428;2023-09-30T00:28:10;17.90;99.90
46037;DHT22;31769;49.304;8.428;2023-09-30T00:31:11;17.80;99.90
46037;DHT22;31769;49.304;8.428;2023-09-30T00:34:11;17.80;99.90
46037;DHT22;31769;49.304;8.428;2023-09-30T00:37:12;17.80;99.90
46037;DHT22;31769;49.304;8.428;2023-09-30T00:40:14;17.80;99.90
46037;DHT22;31769;49.304;8.428;2023-09-30T00:43:20;17.70;99.90
46037;DHT22;31769;49.304;8.428;2023-09-30T00:46:38;17.70;99.90
46037;DHT22;31769;49.304;8.428;2023-09-30T00:49:40;17.70;99.90
46037;DHT22;31769;49.304;8.428;2023-09-30T00:52:45;17.70;99.90
46037;DHT22;31769;49.304;8.428;2023-09-30T00:55:47;17.70;99.90
46037;DHT22;31769;49.304;8.428;2023-09-30T00:58:47;17.80;99.90
46037;DHT22;31769;49.304;8.428;2023-09-30T01:01:48;17.80;99.90
46037;DHT22;31769;49.304;8.428;2023-09-30T01:04:50;17.80;99.90
46037;DHT22;31769;49.304;8.428;2023-09-30T01:07:50;17.70;99.90
46037;DHT22;31769;49.304;8.428;2023-09-30T01:10:52;17.70;99.90
46037;DHT22;31769;49.304;8.428;2023-09-30T01:13:52;17.70;99.90
46037;DHT22;31769;49.304;8.428;2023-09-30T01:16:55;17.70;99.90
46037;DHT22;31769;49.304;8.428;2023-09-30T01:19:57;17.60;99.90
46037;DHT22;31769;49.304;8.428;2023-09-30T01:23:01;17.60;99.90
46037;DHT22;31769;49.304;8.428;2023-09-30T01:26:10;17.50;99.90
46037;DHT22;31769;49.304;8.428;2023-09-30T01:29:12;17.50;99.90
46037;DHT22;31769;49.304;8.428;2023-09-30T01:32:13;17.50;99.90
46037;DHT22;31769;49.304;8.428;2023-09-30T01:35:14;17.50;99.90
46037;DHT22;31769;49.304;8.428;2023-09-30T01:38:15;17.40;99.90
46037;DHT22;31769;49.304;8.428;2023-09-30T01:41:15;17.40;99.90
46037;DHT22;31769;49.304;8.428;2023-09-30T01:44:17;17.40;99.90
46037;DHT22;31769;49.304;8.428;2023-09-30T01:47:18;17.40;99.90
46037;DHT22;31769;49.304;8.428;2023-09-30T01:50:18;17.40;99.90
46037;DHT22;31769;49.304;8.428;2023-09-30T01:53:19;17.30;99.90
46037;DHT22;31769;49.304;8.428;2023-09-30T01:56:20;17.30;99.90
46037;DHT22;31769;49.304;8.428;2023-09-30T01:59:20;17.30;99.90
46037;DHT22;31769;49.304;8.428;2023-09-30T02:02:21;17.30;99.90
46037;DHT22;31769;49.304;8.428;2023-09-30T02:05:23;17.30;99.90
46037;DHT22;31769;49.304;8.428;2023-09-30T02:08:24;17.30;99.90
46037;DHT22;31769;49.304;8.428;2023-09-30T02:11:25;17.30;99.90
46037;DHT22;31769;49.304;8.428;2023-09-30T02:14:25;17.30;99.90
46037;DHT22;31769;49.304;8.428;2023-09-30T02:17:26;17.20;99.90
46037;DHT22;31769;49.304;8.428;2023-09-30T02:20:26;17.30;99.90
46037;DHT22;31769;49.304;8.428;2023-09-30T02:23:30;17.30;99.90
46037;DHT22;31769;49.304;8.428;2023-09-30T02:26:31;17.30;99.90
46037;DHT22;31769;49.304;8.428;2023-09-30T02:29:32;17.30;99.90
46037;DHT22;31769;49.304;8.428;2023-09-30T02:32:33;17.30;99.90
46037;DHT22;31769;49.304;8.428;2023-09-30T02:35:33;17.40;99.90
46037;DHT22;31769;49.304;8.428;2023-09-30T02:38:35;17.40;99.90
46037;DHT22;31769;49.304;8.428;2023-09-30T02:41:37;17.40;99.90
46037;DHT22;31769;49.304;8.428;2023-09-30T02:44:39;17.50;99.90
46037;DHT22;31769;49.304;8.428;2023-09-30T02:47:40;17.40;99.90
46037;DHT22;31769;49.304;8.428;2023-09-30T02:50:43;17.40;99.90
46037;DHT22;31769;49.304;8.428;2023-09-30T02:53:47;17.40;99.90
46037;DHT22;31769;49.304;8.428;2023-09-30T02:56:48;17.40;99.90
46037;DHT22;31769;49.304;8.428;2023-09-30T02:59:49;17.50;99.90
46037;DHT22;31769;49.304;8.428;2023-09-30T03:02:51;17.40;99.90
46037;DHT22;31769;49.304;8.428;2023-09-30T03:05:53;17.40;99.90
46037;DHT22;31769;49.304;8.428;2023-09-30T03:08:54;17.30;99.90
46037;DHT22;31769;49.304;8.428;2023-09-30T03:11:55;17.30;99.90
46037;DHT22;31769;49.304;8.428;2023-09-30T03:14:59;17.30;99.90
46037;DHT22;31769;49.304;8.428;2023-09-30T03:18:00;17.30;99.90
46037;DHT22;31769;49.304;8.428;2023-09-30T03:21:01;17.30;99.90
46037;DHT22;31769;49.304;8.428;2023-09-30T03:24:06;17.30;99.90
46037;DHT22;31769;49.304;8.428;2023-09-30T03:27:08;17.20;99.90
46037;DHT22;31769;49.304;8.428;2023-09-30T03:30:09;17.10;99.90
46037;DHT22;31769;49.304;8.428;2023-09-30T03:33:12;17.10;99.90
46037;DHT22;31769;49.304;8.428;2023-09-30T03:36:13;17.10;99.90
46037;DHT22;31769;49.304;8.428;2023-09-30T03:39:15;16.90;99.90
46037;DHT22;31769;49.304;8.428;2023-09-30T03:42:17;16.80;99.90
46037;DHT22;31769;49.304;8.428;2023-09-30T03:45:18;16.70;99.90
46037;DHT22;31769;49.304;8.428;2023-09-30T03:48:19;16.60;99.90
46037;DHT22;31769;49.304;8.428;2023-09-30T03:51:19;16.50;99.90
46037;DHT22;31769;49.304;8.428;2023-09-30T03:54:20;16.50;99.90
46037;DHT22;31769;49.304;8.428;2023-09-30T03:57:21;16.40;99.90
46037;DHT22;31769;49.304;8.428;2023-09-30T04:00:22;16.40;99.90
46037;DHT22;31769;49.304;8.428;2023-09-30T04:03:22;16.40;99.90
46037;DHT22;31769;49.304;8.428;2023-09-30T04:06:23;16.60;99.90
46037;DHT22;31769;49.304;8.428;2023-09-30T04:09:24;16.50;99.90
46037;DHT22;31769;49.304;8.428;2023-09-30T04:12:26;16.50;99.90
46037;DHT22;31769;49.304;8.428;2023-09-30T04:15:27;16.40;99.90
46037;DHT22;31769;49.304;8.428;2023-09-30T04:18:28;16.30;99.90
46037;DHT22;31769;49.304;8.428;2023-09-30T04:21:29;16.20;99.90
46037;DHT22;31769;49.304;8.428;2023-09-30T04:24:32;16.30;99.90
46037;DHT22;31769;49.304;8.428;2023-09-30T04:27:33;16.30;99.90
46037;DHT22;31769;49.304;8.428;2023-09-30T04:30:33;16.20;99.90
46037;DHT22;31769;49.304;8.428;2023-09-30T04:33:34;16.10;99.90
46037;DHT22;31769;49.304;8.428;2023-09-30T04:36:37;16.10;99.90
46037;DHT22;31769;49.304;8.428;2023-09-30T04:39:38;16.20;99.90
46037;DHT22;31769;49.304;8.428;2023-09-30T04:42:39;16.10;99.90
46037;DHT22;31769;49.304;8.428;2023-09-30T04:45:40;16.20;99.90
46037;DHT22;31769;49.304;8.428;2023-09-30T04:48:40;16.10;99.90
46037;DHT22;31769;49.304;8.428;2023-09-30T04:51:41;16.10;99.90
46037;DHT22;31769;49.304;8.428;2023-09-30T04:54:42;16.20;99.90
46037;DHT22;31769;49.304;8.428;2023-09-30T04:57:48;16.20;99.90
46037;DHT22;31769;49.304;8.428;2023-09-30T05:00:49;16.10;99.90
46037;DHT22;31769;49.304;8.428;2023-09-30T05:03:50;16.10;99.90
46037;DHT22;31769;49.304;8.428;2023-09-30T05:06:50;16.10;99.90
46037;DHT22;31769;49.304;8.428;2023-09-30T05:09:51;16.10;99.90
46037;DHT22;31769;49.304;8.428;2023-09-30T05:12:55;16.00;99.90
46037;DHT22;31769;49.304;8.428;2023-09-30T05:15:56;16.10;99.90
46037;DHT22;31769;49.304;8.428;2023-09-30T05:18:56;16.10;99.90
46037;DHT22;31769;49.304;8.428;2023-09-30T05:21:57;15.90;99.90
46037;DHT22;31769;49.304;8.428;2023-09-30T05:24:58;15.90;99.90
46037;DHT22;31769;49.304;8.428;2023-09-30T05:27:59;15.80;99.90
46037;DHT22;31769;49.304;8.428;2023-09-30T05:30:59;15.90;99.90
46037;DHT22;31769;49.304;8.428;2023-09-30T05:34:01;15.80;99.90
46037;DHT22;31769;49.304;8.428;2023-09-30T05:37:02;15.90;99.90
46037;DHT22;31769;49.304;8.428;2023-09-30T05:40:04;15.80;99.90
46037;DHT22;31769;49.304;8.428;2023-09-30T05:43:09;15.80;99.90
46037;DHT22;31769;49.304;8.428;2023-09-30T05:46:15;15.80;99.90
46037;DHT22;31769;49.304;8.428;2023-09-30T05:49:15;15.90;99.90
46037;DHT22;31769;49.304;8.428;2023-09-30T05:52:16;15.90;99.90
46037;DHT22;31769;49.304;8.428;2023-09-30T05:55:17;16.00;99.90
46037;DHT22;31769;49.304;8.428;2023-09-30T05:58:21;16.10;99.90
46037;DHT22;31769;49.304;8.428;2023-09-30T06:01:21;16.10;99.90
46037;DHT22;31769;49.304;8.428;2023-09-30T06:04:22;16.10;99.90
46037;DHT22;31769;49.304;8.428;2023-09-30T06:07:23;16.10;99.90
46037;DHT22;31769;49.304;8.428;2023-09-30T06:10:24;16.10;99.90
46037;DHT22;31769;49.304;8.428;2023-09-30T06:13:26;16.10;99.90
46037;DHT22;31769;49.304;8.428;2023-09-30T06:16:28;16.10;99.90
46037;DHT22;31769;49.304;8.428;2023-09-30T06:19:32;16.10;99.90
46037;DHT22;31769;49.304;8.428;2023-09-30T06:22:32;16.20;99.90
46037;DHT22;31769;49.304;8.428;2023-09-30T06:25:33;16.10;99.90
46037;DHT22;31769;49.304;8.428;2023-09-30T06:28:34;16.20;99.90
46037;DHT22;31769;49.304;8.428;2023-09-30T06:31:41;16.30;99.90
46037;DHT22;31769;49.304;8.428;2023-09-30T06:34:41;16.40;99.90
46037;DHT22;31769;49.304;8.428;2023-09-30T06:37:43;16.40;99.90
46037;DHT22;31769;49.304;8.428;2023-09-30T06:40:46;16.40;99.90
46037;DHT22;31769;49.304;8.428;2023-09-30T06:43:48;16.50;99.90
46037;DHT22;31769;49.304;8.428;2023-09-30T06:46:49;16.60;99.90
46037;DHT22;31769;49.304;8.428;2023-09-30T06:49:51;16.70;99.90
46037;DHT22;31769;49.304;8.428;2023-09-30T06:52:51;16.70;99.90
46037;DHT22;31769;49.304;8.428;2023-09-30T06:55:52;16.80;99.90
46037;DHT22;31769;49.304;8.428;2023-09-30T06:58:53;16.80;99.90
46037;DHT22;31769;49.304;8.428;2023-09-30T07:01:54;16.80;99.90
46037;DHT22;31769;49.304;8.428;2023-09-30T07:04:55;17.00;99.90
46037;DHT22;31769;49.304;8.428;2023-09-30T07:07:56;17.00;99.90
46037;DHT22;31769;49.304;8.428;2023-09-30T07:10:56;17.10;99.90
46037;DHT22;31769;49.304;8.428;2023-09-30T07:13:57;17.10;99.90
46037;DHT22;31769;49.304;8.428;2023-09-30T07:16:58;17.20;99.90
46037;DHT22;31769;49.304;8.428;2023-09-30T07:19:59;17.30;99.90
46037;DHT22;31769;49.304;8.428;2023-09-30T07:23:00;17.40;99.90
46037;DHT22;31769;49.304;8.428;2023-09-30T07:26:01;17.50;99.90
46037;DHT22;31769;49.304;8.428;2023-09-30T07:29:02;17.60;99.90
46037;DHT22;31769;49.304;8.428;2023-09-30T07:32:06;17.80;99.90
46037;DHT22;31769;49.304;8.428;2023-09-30T07:35:08;17.80;99.90
46037;DHT22;31769;49.304;8.428;2023-09-30T07:38:09;17.90;99.90
46037;DHT22;31769;49.304;8.428;2023-09-30T07:41:09;18.10;99.90
46037;DHT22;31769;49.304;8.428;2023-09-30T07:44:11;18.20;99.90
46037;DHT22;31769;49.304;8.428;2023-09-30T07:47:11;18.20;99.90
46037;DHT22;31769;49.304;8.428;2023-09-30T07:50:12;18.30;99.90
46037;DHT22;31769;49.304;8.428;2023-09-30T07:53:13;18.40;99.90
46037;DHT22;31769;49.304;8.428;2023-09-30T07:56:14;18.60;99.90
46037;DHT22;31769;49.304;8.428;2023-09-30T07:59:14;18.70;99.90
46037;DHT22;31769;49.304;8.428;2023-09-30T08:02:16;18.80;99.90
46037;DHT22;31769;49.304;8.428;2023-09-30T08:05:18;18.80;99.90
46037;DHT22;31769;49.304;8.428;2023-09-30T08:08:18;18.90;99.90
46037;DHT22;31769;49.304;8.428;2023-09-30T08:11:19;19.10;99.90
46037;DHT22;31769;49.304;8.428;2023-09-30T08:14:21;19.10;99.90
46037;DHT22;31769;49.304;8.428;2023-09-30T08:17:22;19.20;99.90
46037;DHT22;31769;49.304;8.428;2023-09-30T08:20:23;19.20;99.90
46037;DHT22;31769;49.304;8.428;2023-09-30T08:23:24;19.30;99.90
46037;DHT22;31769;49.304;8.428;2023-09-30T08:26:24;19.40;99.90
46037;DHT22;31769;49.304;8.428;2023-09-30T08:29:25;19.40;99.90
46037;DHT22;31769;49.304;8.428;2023-09-30T08:32:26;19.20;99.90
46037;DHT22;31769;49.304;8.428;2023-09-30T08:35:26;19.20;99.90
46037;DHT22;31769;49.304;8.428;2023-09-30T08:38:28;19.30;99.90
46037;DHT22;31769;49.304;8.428;2023-09-30T08:41:33;19.50;99.90
46037;DHT22;31769;49.304;8.428;2023-09-30T08:44:35;19.60;99.90
46037;DHT22;31769;49.304;8.428;2023-09-30T08:47:37;19.60;99.90
46037;DHT22;31769;49.304;8.428;2023-09-30T08:50:39;19.70;99.90
46037;DHT22;31769;49.304;8.428;2023-09-30T08:53:42;19.80;99.90
46037;DHT22;31769;49.304;8.428;2023-09-30T08:56:47;20.10;99.90
46037;DHT22;31769;49.304;8.428;2023-09-30T08:59:50;20.20;99.90
46037;DHT22;31769;49.304;8.428;2023-09-30T09:02:50;20.20;99.90
46037;DHT22;31769;49.304;8.428;2023-09-30T09:05:57;20.40;99.90
46037;DHT22;31769;49.304;8.428;2023-09-30T09:09:18;20.60;99.90
46037;DHT22;31769;49.304;8.428;2023-09-30T09:12:20;20.70;99.90
46037;DHT22;31769;49.304;8.428;2023-09-30T09:15:23;20.70;99.90
46037;DHT22;31769;49.304;8.428;2023-09-30T09:18:33;21.00;99.90
46037;DHT22;31769;49.304;8.428;2023-09-30T09:21:36;21.10;99.90
46037;DHT22;31769;49.304;8.428;2023-09-30T09:24:37;21.30;99.90
46037;DHT22;31769;49.304;8.428;2023-09-30T09:27:42;21.10;99.90
46037;DHT22;31769;49.304;8.428;2023-09-30T09:30:43;21.20;99.90
46037;DHT22;31769;49.304;8.428;2023-09-30T09:33:44;21.40;99.90
46037;DHT22;31769;49.304;8.428;2023-09-30T09:36:45;21.50;99.90
46037;DHT22;31769;49.304;8.428;2023-09-30T09:39:54;21.40;99.90
46037;DHT22;31769;49.304;8.428;2023-09-30T09:42:56;21.50;99.90
46037;DHT22;31769;49.304;8.428;2023-09-30T09:45:57;21.60;99.90
46037;DHT22;31769;49.304;8.428;2023-09-30T09:48:58;21.70;99.90
46037;DHT22;31769;49.304;8.428;2023-09-30T09:52:00;21.80;99.90
46037;DHT22;31769;49.304;8.428;2023-09-30T09:55:02;21.70;99.90
46037;DHT22;31769;49.304;8.428;2023-09-30T09:58:03;21.70;99.90
46037;DHT22;31769;49.304;8.428;2023-09-30T10:01:06;21.70;99.90
46037;DHT22;31769;49.304;8.428;2023-09-30T10:04:07;21.70;99.90
46037;DHT22;31769;49.304;8.428;2023-09-30T10:07:15;22.00;99.90
46037;DHT22;31769;49.304;8.428;2023-09-30T10:10:18;22.10;99.90
46037;DHT22;31769;49.304;8.428;2023-09-30T10:16:53;22.60;99.90
46037;DHT22;31769;49.304;8.428;2023-09-30T10:20:07;22.90;99.90
46037;DHT22;31769;49.304;8.428;2023-09-30T10:26:18;23.10;99.90
46037;DHT22;31769;49.304;8.428;2023-09-30T10:29:20;22.90;99.90
46037;DHT22;31769;49.304;8.428;2023-09-30T10:32:21;23.00;99.90
46037;DHT22;31769;49.304;8.428;2023-09-30T10:44:45;23.90;99.90
46037;DHT22;31769;49.304;8.428;2023-09-30T10:47:46;24.20;99.90
46037;DHT22;31769;49.304;8.428;2023-09-30T10:50:53;24.30;99.90
46037;DHT22;31769;49.304;8.428;2023-09-30T10:53:55;24.40;99.90
46037;DHT22;31769;49.304;8.428;2023-09-30T10:57:01;24.60;99.90
46037;DHT22;31769;49.304;8.428;2023-09-30T11:00:11;24.90;99.90
46037;DHT22;31769;49.304;8.428;2023-09-30T11:03:12;25.20;99.90
46037;DHT22;31769;49.304;8.428;2023-09-30T11:06:14;24.80;99.90
46037;DHT22;31769;49.304;8.428;2023-09-30T11:09:19;23.70;99.90
46037;DHT22;31769;49.304;8.428;2023-09-30T11:12:20;23.30;99.90
46037;DHT22;31769;49.304;8.428;2023-09-30T11:15:21;23.60;99.90
46037;DHT22;31769;49.304;8.428;2023-09-30T11:18:22;24.10;99.90
46037;DHT22;31769;49.304;8.428;2023-09-30T11:21:23;24.40;99.90
46037;DHT22;31769;49.304;8.428;2023-09-30T11:24:24;24.70;99.90
46037;DHT22;31769;49.304;8.428;2023-09-30T11:27:25;25.30;99.90
46037;DHT22;31769;49.304;8.428;2023-09-30T11:30:27;25.30;99.90
46037;DHT22;31769;49.304;8.428;2023-09-30T11:33:28;25.70;99.90
46037;DHT22;31769;49.304;8.428;2023-09-30T11:36:30;26.00;99.90
46037;DHT22;31769;49.304;8.428;2023-09-30T11:39:31;26.70;99.10
46037;DHT22;31769;49.304;8.428;2023-09-30T11:42:33;27.20;98.20
46037;DHT22;31769;49.304;8.428;2023-09-30T11:45:34;28.00;96.60
46037;DHT22;31769;49.304;8.428;2023-09-30T11:48:35;28.40;94.90
46037;DHT22;31769;49.304;8.428;2023-09-30T11:51:43;29.30;93.40
46037;DHT22;31769;49.304;8.428;2023-09-30T11:54:46;30.10;91.50
46037;DHT22;31769;49.304;8.428;2023-09-30T11:57:47;30.00;90.30
46037;DHT22;31769;49.304;8.428;2023-09-30T12:00:48;28.90;89.20
46037;DHT22;31769;49.304;8.428;2023-09-30T12:03:51;27.50;91.40
46037;DHT22;31769;49.304;8.428;2023-09-30T12:06:52;26.30;92.60
46037;DHT22;31769;49.304;8.428;2023-09-30T12:09:53;26.40;93.40
46037;DHT22;31769;49.304;8.428;2023-09-30T12:12:54;27.10;93.30
46037;DHT22;31769;49.304;8.428;2023-09-30T12:15:55;28.20;92.00
46037;DHT22;31769;49.304;8.428;2023-09-30T12:18:57;28.60;90.60
46037;DHT22;31769;49.304;8.428;2023-09-30T12:21:58;28.20;90.70
46037;DHT22;31769;49.304;8.428;2023-09-30T12:24:59;27.80;91.10
46037;DHT22;31769;49.304;8.428;2023-09-30T12:28:00;27.60;90.50
46037;DHT22;31769;49.304;8.428;2023-09-30T12:31:01;27.40;90.50
46037;DHT22;31769;49.304;8.428;2023-09-30T12:34:05;26.80;91.10
46037;DHT22;31769;49.304;8.428;2023-09-30T12:37:06;27.90;90.00
46037;DHT22;31769;49.304;8.428;2023-09-30T12:40:07;30.40;85.60
46037;DHT22;31769;49.304;8.428;2023-09-30T12:43:08;32.80;74.70
46037;DHT22;31769;49.304;8.428;2023-09-30T12:46:09;34.20;68.90
46037;DHT22;31769;49.304;8.428;2023-09-30T12:49:10;35.00;63.90
46037;DHT22;31769;49.304;8.428;2023-09-30T12:52:10;36.50;60.40
46037;DHT22;31769;49.304;8.428;2023-09-30T12:55:11;37.80;56.60
46037;DHT22;31769;49.304;8.428;2023-09-30T12:58:12;38.60;53.40
46037;DHT22;31769;49.304;8.428;2023-09-30T13:01:12;38.40;52.30
46037;DHT22;31769;49.304;8.428;2023-09-30T13:04:14;39.10;51.20
46037;DHT22;31769;49.304;8.428;2023-09-30T13:07:15;40.20;49.60
46037;DHT22;31769;49.304;8.428;2023-09-30T13:10:16;40.50;47.50
46037;DHT22;31769;49.304;8.428;2023-09-30T13:13:16;40.80;47.70
46037;DHT22;31769;49.304;8.428;2023-09-30T13:16:17;40.20;46.90
46037;DHT22;31769;49.304;8.428;2023-09-30T13:19:18;39.80;45.90
46037;DHT22;31769;49.304;8.428;2023-09-30T13:22:21;39.90;46.50
46037;DHT22;31769;49.304;8.428;2023-09-30T13:25:22;38.10;47.80
46037;DHT22;31769;49.304;8.428;2023-09-30T13:28:23;36.10;49.80
46037;DHT22;31769;49.304;8.428;2023-09-30T13:31:23;34.60;51.90
46037;DHT22;31769;49.304;8.428;2023-09-30T13:34:24;34.10;52.60
46037;DHT22;31769;49.304;8.428;2023-09-30T13:37:25;33.80;52.40
46037;DHT22;31769;49.304;8.428;2023-09-30T13:40:30;30.90;56.40
46037;DHT22;31769;49.304;8.428;2023-09-30T13:43:31;30.40;58.40
46037;DHT22;31769;49.304;8.428;2023-09-30T13:46:31;31.80;56.60
46037;DHT22;31769;49.304;8.428;2023-09-30T13:49:32;32.50;55.10
46037;DHT22;31769;49.304;8.428;2023-09-30T13:52:34;31.20;56.30
46037;DHT22;31769;49.304;8.428;2023-09-30T13:55:38;31.20;57.30
46037;DHT22;31769;49.304;8.428;2023-09-30T13:58:38;30.90;57.70
46037;DHT22;31769;49.304;8.428;2023-09-30T14:01:39;30.60;58.20
46037;DHT22;31769;49.304;8.428;2023-09-30T14:04:41;31.10;57.90
46037;DHT22;31769;49.304;8.428;2023-09-30T14:07:42;31.00;58.20
46037;DHT22;31769;49.304;8.428;2023-09-30T14:10:43;30.70;60.00
46037;DHT22;31769;49.304;8.428;2023-09-30T14:13:44;30.70;59.10
46037;DHT22;31769;49.304;8.428;2023-09-30T14:16:45;30.40;58.80
46037;DHT22;31769;49.304;8.428;2023-09-30T14:19:47;30.10;59.10
46037;DHT22;31769;49.304;8.428;2023-09-30T14:22:48;29.70;60.30
46037;DHT22;31769;49.304;8.428;2023-09-30T14:25:49;29.00;62.10
46037;DHT22;31769;49.304;8.428;2023-09-30T14:28:49;28.80;62.90
46037;DHT22;31769;49.304;8.428;2023-09-30T14:31:50;28.40;63.80
46037;DHT22;31769;49.304;8.428;2023-09-30T14:34:52;28.10;65.10
46037;DHT22;31769;49.304;8.428;2023-09-30T14:37:53;27.50;65.90
46037;DHT22;31769;49.304;8.428;2023-09-30T14:40:55;28.10;65.10
46037;DHT22;31769;49.304;8.428;2023-09-30T14:43:55;29.50;62.00
46037;DHT22;31769;49.304;8.428;2023-09-30T14:46:56;30.50;60.60
46037;DHT22;31769;49.304;8.428;2023-09-30T14:49:57;31.50;58.90
46037;DHT22;31769;49.304;8.428;2023-09-30T14:53:02;30.40;59.60
46037;DHT22;31769;49.304;8.428;2023-09-30T14:56:02;29.80;61.00
46037;DHT22;31769;49.304;8.428;2023-09-30T14:59:03;30.30;60.40
46037;DHT22;31769;49.304;8.428;2023-09-30T15:02:04;31.50;58.70
46037;DHT22;31769;49.304;8.428;2023-09-30T15:05:05;32.30;56.90
46037;DHT22;31769;49.304;8.428;2023-09-30T15:08:06;32.40;56.20
46037;DHT22;31769;49.304;8.428;2023-09-30T15:11:13;32.80;56.40
46037;DHT22;31769;49.304;8.428;2023-09-30T15:14:17;32.60;56.20
46037;DHT22;31769;49.304;8.428;2023-09-30T15:17:18;32.20;56.50
46037;DHT22;31769;49.304;8.428;2023-09-30T15:20:19;31.90;56.40
46037;DHT22;31769;49.304;8.428;2023-09-30T15:23:20;32.30;56.50
46037;DHT22;31769;49.304;8.428;2023-09-30T15:26:21;33.20;55.50
46037;DHT22;31769;49.304;8.428;2023-09-30T15:29:21;34.00;54.30
46037;DHT22;31769;49.304;8.428;2023-09-30T15:32:22;33.80;53.70
46037;DHT22;31769;49.304;8.428;2023-09-30T15:35:23;32.80;54.90
46037;DHT22;31769;49.304;8.428;2023-09-30T15:38:24;32.30;56.10
46037;DHT22;31769;49.304;8.428;2023-09-30T15:41:24;31.60;56.80
46037;DHT22;31769;49.304;8.428;2023-09-30T15:44:25;30.60;57.50
46037;DHT22;31769;49.304;8.428;2023-09-30T15:47:26;29.70;59.70
46037;DHT22;31769;49.304;8.428;2023-09-30T15:50:27;29.30;61.10
46037;DHT22;31769;49.304;8.428;2023-09-30T15:53:27;29.10;61.80
46037;DHT22;31769;49.304;8.428;2023-09-30T15:56:29;28.50;62.80
46037;DHT22;31769;49.304;8.428;2023-09-30T15:59:29;27.90;64.30
46037;DHT22;31769;49.304;8.428;2023-09-30T16:02:30;27.80;64.80
46037;DHT22;31769;49.304;8.428;2023-09-30T16:05:32;27.50;65.00
46037;DHT22;31769;49.304;8.428;2023-09-30T16:08:33;27.90;64.90
46037;DHT22;31769;49.304;8.428;2023-09-30T16:11:34;28.30;64.00
46037;DHT22;31769;49.304;8.428;2023-09-30T16:14:34;28.90;63.00
46037;DHT22;31769;49.304;8.428;2023-09-30T16:17:35;29.10;62.30
46037;DHT22;31769;49.304;8.428;2023-09-30T16:20:36;29.10;62.60
46037;DHT22;31769;49.304;8.428;2023-09-30T16:23:36;28.80;63.00
46037;DHT22;31769;49.304;8.428;2023-09-30T16:26:37;28.50;63.30
46037;DHT22;31769;49.304;8.428;2023-09-30T16:29:38;28.20;64.20
46037;DHT22;31769;49.304;8.428;2023-09-30T16:32:38;27.80;64.10
46037;DHT22;31769;49.304;8.428;2023-09-30T16:35:40;27.40;64.80
46037;DHT22;31769;49.304;8.428;2023-09-30T16:38:40;27.20;65.80
46037;DHT22;31769;49.304;8.428;2023-09-30T16:41:41;26.80;67.00
46037;DHT22;31769;49.304;8.428;2023-09-30T16:44:42;26.40;67.80
46037;DHT22;31769;49.304;8.428;2023-09-30T16:47:42;25.80;69.10
46037;DHT22;31769;49.304;8.428;2023-09-30T16:50:43;25.30;70.80
46037;DHT22;31769;49.304;8.428;2023-09-30T16:53:44;24.70;71.80
46037;DHT22;31769;49.304;8.428;2023-09-30T16:56:45;24.30;73.20
46037;DHT22;31769;49.304;8.428;2023-09-30T16:59:46;23.90;74.60
46037;DHT22;31769;49.304;8.428;2023-09-30T17:02:46;23.40;77.60
46037;DHT22;31769;49.304;8.428;2023-09-30T17:05:47;23.00;80.90
46037;DHT22;31769;49.304;8.428;2023-09-30T17:08:48;22.40;84.10
46037;DHT22;31769;49.304;8.428;2023-09-30T17:11:49;22.10;86.90
46037;DHT22;31769;49.304;8.428;2023-09-30T17:14:49;21.80;88.90
46037;DHT22;31769;49.304;8.428;2023-09-30T17:17:50;21.60;91.00
46037;DHT22;31769;49.304;8.428;2023-09-30T17:20:52;21.30;92.50
46037;DHT22;31769;49.304;8.428;2023-09-30T17:23:53;21.10;94.40
46037;DHT22;31769;49.304;8.428;2023-09-30T17:26:55;20.90;96.30
46037;DHT22;31769;49.304;8.428;2023-09-30T17:29:55;20.80;97.80
46037;DHT22;31769;49.304;8.428;2023-09-30T17:32:56;20.60;99.40
46037;DHT22;31769;49.304;8.428;2023-09-30T17:36:01;20.50;99.90
46037;DHT22;31769;49.304;8.428;2023-09-30T17:39:03;20.30;99.90
46037;DHT22;31769;49.304;8.428;2023-09-30T17:42:04;20.20;99.90
46037;DHT22;31769;49.304;8.428;2023-09-30T17:45:06;20.20;99.90
46037;DHT22;31769;49.304;8.428;2023-09-30T17:48:09;20.10;99.90
46037;DHT22;31769;49.304;8.428;2023-09-30T17:51:14;20.00;99.90
46037;DHT22;31769;49.304;8.428;2023-09-30T17:54:18;19.90;99.90
46037;DHT22;31769;49.304;8.428;2023-09-30T17:57:19;19.90;99.90
46037;DHT22;31769;49.304;8.428;2023-09-30T18:00:20;19.80;99.90
46037;DHT22;31769;49.304;8.428;2023-09-30T18:03:20;19.70;99.90
46037;DHT22;31769;49.304;8.428;2023-09-30T18:06:23;19.50;99.90
46037;DHT22;31769;49.304;8.428;2023-09-30T18:09:24;19.40;99.90
46037;DHT22;31769;49.304;8.428;2023-09-30T18:12:25;19.30;99.90
46037;DHT22;31769;49.304;8.428;2023-09-30T18:15:25;19.30;99.90
46037;DHT22;31769;49.304;8.428;2023-09-30T18:18:27;19.20;99.90
46037;DHT22;31769;49.304;8.428;2023-09-30T18:21:27;19.10;99.90
46037;DHT22;31769;49.304;8.428;2023-09-30T18:24:28;19.00;99.90
46037;DHT22;31769;49.304;8.428;2023-09-30T18:27:29;18.90;99.90
46037;DHT22;31769;49.304;8.428;2023-09-30T18:30:30;18.80;99.90
46037;DHT22;31769;49.304;8.428;2023-09-30T18:33:31;18.60;99.90
46037;DHT22;31769;49.304;8.428;2023-09-30T18:36:31;18.60;99.90
46037;DHT22;31769;49.304;8.428;2023-09-30T18:39:32;18.60;99.90
46037;DHT22;31769;49.304;8.428;2023-09-30T18:42:32;18.50;99.90
46037;DHT22;31769;49.304;8.428;2023-09-30T18:45:33;18.50;99.90
46037;DHT22;31769;49.304;8.428;2023-09-30T18:48:34;18.50;99.90
46037;DHT22;31769;49.304;8.428;2023-09-30T18:51:34;18.40;99.90
46037;DHT22;31769;49.304;8.428;2023-09-30T18:54:35;18.40;99.90
46037;DHT22;31769;49.304;8.428;2023-09-30T18:57:36;18.40;99.90
46037;DHT22;31769;49.304;8.428;2023-09-30T19:00:38;18.30;99.90
46037;DHT22;31769;49.304;8.428;2023-09-30T19:03:39;18.20;99.90
46037;DHT22;31769;49.304;8.428;2023-09-30T19:06:40;18.00;99.90
46037;DHT22;31769;49.304;8.428;2023-09-30T19:09:40;17.90;99.90
46037;DHT22;31769;49.304;8.428;2023-09-30T19:12:42;17.80;99.90
46037;DHT22;31769;49.304;8.428;2023-09-30T19:15:42;17.70;99.90
46037;DHT22;31769;49.304;8.428;2023-09-30T19:18:43;17.60;99.90
46037;DHT22;31769;49.304;8.428;2023-09-30T19:21:44;17.50;99.90